Vinegar Bend, Alabama
Current Conditions -  °F | °C
As of 8:56 AM on Monday 22 Dec 2014 (Local Time) from KMOB Reporting Station
Haze Haze  
Wind Chill: 57°   Ceiling: 300
Heat Index: 57°   Visibility: 2mi
Dew Point: 57°   Wind: 8mph
Humidity: 100%   Direction: 110°ESE
Pressure: 29.88"   Gusts: NA
Location:  31.26°N, 88.34°W
Report Text: KMOB 221456Z 11007KT 2SM BR OVC003 14/14 A2988 RMK AO2 RAB02E22 SLP118 P0000 60002 T01390139 56007
Loading
Personal Weather Stations






























Interactive Weather Map New forecast layout! Learn more

10-Day Weather Forecast

Advertisements
Track Severe Weather on mobile